Mud Lake, Idaho
Current Conditions -  °F | °C
As of 12:53 PM on Thursday 30 Oct 2014 (Local Time) from KIDA Reporting Station
Few Clouds Few Clouds  
Wind Chill: 62°   Ceiling: Unl
Heat Index: 62°   Visibility: 10mi
Dew Point: 33°   Wind: 6mph
Humidity: 34%   Direction: 20°NNE
Pressure: 30.27"   Gusts: NA
Location:  43.8119°N, 112.46°W
Report Text: KIDA 301853Z 02005KT 10SM FEW100 17/01 A3027 RMK AO2 SLP237 T01670006
Loading
Personal Weather Stations






























Interactive Weather Map
Tropical Storm Tracking
New forecast layout! Learn more

10-Day Weather Forecast

Advertisements
Track Severe Weather on mobile